Time;durP1;ratioP1;P1;durP2;ratioP2;P2;SDS_P1;SDS_P2;PMS_P1;PMS_P2;Temp;Humidity;BMP_temperature;BMP_pressure;BME280_temperature;BME280_humidity;BME280_pressure;Samples;Min_cycle;Max_cycle;Signal;HPM_P1;HPM_P2
2022/07/31 00:00:20;;;;;;;;;;;;;;;;;;5018104;28;8504;-86
2022/07/31 00:02:46;;;;;;;;;;;;;;;;;;5019579;28;8466;-86
2022/07/31 00:05:12;;;;;;;;;;;;;;;;;;5018489;28;7113;-86
2022/07/31 00:07:38;;;;;;;;;;;;;;;;;;5018758;28;7074;-86
2022/07/31 00:10:04;;;;;;;;;;;;;;;;;;5020817;28;8698;-85
2022/07/31 00:12:30;;;;;;;;;;;;;;;;;;5018440;28;7178;-86
2022/07/31 00:14:55;;;;;;;;;;;;;;;;;;5018644;28;8591;-85
2022/07/31 00:17:21;;;;;;;;;;;;;;;;;;5016537;28;8426;-86
2022/07/31 00:19:46;;;;;;;;;;;;;;;;;;5014575;28;8336;-87
2022/07/31 00:22:12;;;;;;;;;;;;;;;;;;5016614;28;8429;-86
2022/07/31 00:24:39;;;;;;;;;;;;;;;;;;5018926;28;7040;-85
2022/07/31 00:27:05;;;;;;;;;;;;;;;;;;5019191;28;8428;-86
2022/07/31 00:29:30;;;;;;;;;;;;;;;;;;5016651;28;8726;-86
2022/07/31 00:31:56;;;;;;;;;;;;;;;;;;5014768;28;7154;-86
2022/07/31 00:34:22;;;;;;;;;;;;;;;;;;5013907;28;7060;-86
2022/07/31 00:36:48;;;;;;;;;;;;;;;;;;5014691;28;7090;-86
2022/07/31 00:39:14;;;;;;;;;;;;;;;;;;5014228;28;8492;-86
2022/07/31 00:41:42;;;;;;;;;;;;;;;;;;5014362;28;7211;-86
2022/07/31 00:44:08;;;;;;;;;;;;;;;;;;5013806;28;7184;-85
2022/07/31 00:46:34;;;;;;;;;;;;;;;;;;5014085;28;7152;-85
2022/07/31 00:49:01;;;;;;;;;;;;;;;;;;5014668;28;7507;-86
2022/07/31 00:51:27;;;;;;;;;;;;;;;;;;5014591;28;7163;-86
2022/07/31 00:53:53;;;;;;;;;;;;;;;;;;5014813;28;7039;-86
2022/07/31 00:56:18;;;;;;;;;;;;;;;;;;5014337;28;9145;-86
2022/07/31 00:58:44;;;;;;;;;;;;;;;;;;5014451;28;7026;-86
2022/07/31 01:01:10;;;;;;;;;;;;;;;;;;5014119;28;7404;-87
2022/07/31 01:03:35;;;;;;;;;;;;;;;;;;5014668;28;8319;-87
2022/07/31 01:06:02;;;;;;;;;;;;;;;;;;5014484;28;8483;-87
2022/07/31 01:08:28;;;;;;;;;;;;;;;;;;5014624;28;7057;-86
2022/07/31 01:11:17;;;;;;;;;;;;;;;;;;5014107;28;7058;-86
2022/07/31 01:13:48;;;;;;;;;;;;;;;;;;5008838;28;7270;-87
2022/07/31 01:16:14;;;;;;;;;;;;;;;;;;5014678;28;7191;-86
2022/07/31 01:18:41;;;;;;;;;;;;;;;;;;5013960;28;8636;-87
2022/07/31 01:21:10;;;;;;;;;;;;;;;;;;5014123;28;8435;-86
2022/07/31 01:23:38;;;;;;;;;;;;;;;;;;5013877;28;8427;-87
2022/07/31 01:26:17;;;;;;;;;;;;;;;;;;5014138;28;8408;-87
2022/07/31 01:28:57;;;;;;;;;;;;;;;;;;5014452;28;7127;-86
2022/07/31 01:31:28;;;;;;;;;;;;;;;;;;5013686;28;8436;-87
2022/07/31 01:34:07;;;;;;;;;;;;;;;;;;5014300;28;7258;-87
2022/07/31 01:36:36;;;;;;;;;;;;;;;;;;5013641;28;7259;-87
2022/07/31 01:39:02;;;;;;;;;;;;;;;;;;5013729;28;7257;-86
2022/07/31 01:41:31;;;;;;;;;;;;;;;;;;5013600;28;7376;-87
2022/07/31 01:43:59;;;;;;;;;;;;;;;;;;5013612;28;8429;-86
2022/07/31 01:46:27;;;;;;;;;;;;;;;;;;5013559;28;8416;-86
2022/07/31 01:48:55;;;;;;;;;;;;;;;;;;5013751;28;6959;-86
2022/07/31 01:51:23;;;;;;;;;;;;;;;;;;5014018;28;8441;-86
2022/07/31 01:53:50;;;;;;;;;;;;;;;;;;5013574;28;7193;-86
2022/07/31 01:56:17;;;;;;;;;;;;;;;;;;5014044;28;7184;-86
2022/07/31 01:58:45;;;;;;;;;;;;;;;;;;5014057;28;7176;-87
2022/07/31 02:01:13;;;;;;;;;;;;;;;;;;5014093;28;7277;-88
2022/07/31 02:03:40;;;;;;;;;;;;;;;;;;5014101;28;7187;-86
2022/07/31 02:06:08;;;;;;;;;;;;;;;;;;5013865;28;8490;-86
2022/07/31 02:08:34;;;;;;;;;;;;;;;;;;5014130;28;7161;-86
2022/07/31 02:11:01;;;;;;;;;;;;;;;;;;5013896;28;7062;-86
2022/07/31 02:13:27;;;;;;;;;;;;;;;;;;5013471;28;8348;-87
2022/07/31 02:15:56;;;;;;;;;;;;;;;;;;5013710;28;8537;-87
2022/07/31 02:18:23;;;;;;;;;;;;;;;;;;5013091;28;8966;-87
2022/07/31 02:20:50;;;;;;;;;;;;;;;;;;5013612;28;7183;-86
2022/07/31 02:23:17;;;;;;;;;;;;;;;;;;5013551;28;7065;-87
2022/07/31 02:25:44;;;;;;;;;;;;;;;;;;5013249;28;7474;-86
2022/07/31 02:28:12;;;;;;;;;;;;;;;;;;5013603;28;7071;-86
2022/07/31 02:30:40;;;;;;;;;;;;;;;;;;5013734;28;8535;-87
2022/07/31 02:33:09;;;;;;;;;;;;;;;;;;5013369;28;8517;-87
2022/07/31 02:35:36;;;;;;;;;;;;;;;;;;5013722;28;7236;-86
2022/07/31 02:38:03;;;;;;;;;;;;;;;;;;5013282;28;8419;-86
2022/07/31 02:40:29;;;;;;;;;;;;;;;;;;5013586;28;8449;-87
2022/07/31 02:42:55;;;;;;;;;;;;;;;;;;5013440;28;8368;-87
2022/07/31 02:45:22;;;;;;;;;;;;;;;;;;5013484;28;8608;-87
2022/07/31 02:47:47;;;;;;;;;;;;;;;;;;5013362;28;8362;-86
2022/07/31 02:50:15;;;;;;;;;;;;;;;;;;5016967;28;8547;-86
2022/07/31 02:52:42;;;;;;;;;;;;;;;;;;5017709;28;7151;-86
2022/07/31 02:55:08;;;;;;;;;;;;;;;;;;5016981;28;8578;-86
2022/07/31 02:57:33;;;;;;;;;;;;;;;;;;5016604;28;7037;-87
2022/07/31 02:59:59;;;;;;;;;;;;;;;;;;5016880;28;8381;-86
2022/07/31 03:02:25;;;;;;;;;;;;;;;;;;5017500;28;7063;-87
2022/07/31 03:04:50;;;;;;;;;;;;;;;;;;5017013;28;8627;-86
2022/07/31 03:07:16;;;;;;;;;;;;;;;;;;5017019;28;8368;-86
2022/07/31 03:09:42;;;;;;;;;;;;;;;;;;5016573;28;8461;-86
2022/07/31 03:12:08;;;;;;;;;;;;;;;;;;5016260;28;7037;-87
2022/07/31 03:14:35;;;;;;;;;;;;;;;;;;5016931;28;7227;-87
2022/07/31 03:17:03;;;;;;;;;;;;;;;;;;5016277;28;8552;-87
2022/07/31 03:19:30;;;;;;;;;;;;;;;;;;5016436;28;7460;-87
2022/07/31 03:21:55;;;;;;;;;;;;;;;;;;5016681;28;7038;-87
2022/07/31 03:24:21;;;;;;;;;;;;;;;;;;5016560;28;8261;-86
2022/07/31 03:26:47;;;;;;;;;;;;;;;;;;5016328;28;8407;-86
2022/07/31 03:29:13;;;;;;;;;;;;;;;;;;5015852;28;7179;-86
2022/07/31 03:31:39;;;;;;;;;;;;;;;;;;5015970;28;7073;-85
2022/07/31 03:34:04;;;;;;;;;;;;;;;;;;5016438;28;7121;-85
2022/07/31 03:36:30;;;;;;;;;;;;;;;;;;5016437;28;7600;-85
2022/07/31 03:38:57;;;;;;;;;;;;;;;;;;5015764;28;7155;-85
2022/07/31 03:41:22;;;;;;;;;;;;;;;;;;5016364;28;7243;-85
2022/07/31 03:43:48;;;;;;;;;;;;;;;;;;5016578;28;7098;-85
2022/07/31 03:46:16;;;;;;;;;;;;;;;;;;5016844;28;7086;-85
2022/07/31 03:48:41;;;;;;;;;;;;;;;;;;5015423;28;7999;-85
2022/07/31 03:51:07;;;;;;;;;;;;;;;;;;5016442;28;8415;-85
2022/07/31 03:53:34;;;;;;;;;;;;;;;;;;5015611;28;7000;-85
2022/07/31 03:56:01;;;;;;;;;;;;;;;;;;5015908;28;8486;-85
2022/07/31 03:58:27;;;;;;;;;;;;;;;;;;5016237;28;7047;-86
2022/07/31 04:00:53;;;;;;;;;;;;;;;;;;5015659;28;9576;-85
2022/07/31 04:03:19;;;;;;;;;;;;;;;;;;5015589;28;7016;-85
2022/07/31 04:05:45;;;;;;;;;;;;;;;;;;5015157;28;8392;-85
2022/07/31 04:08:11;;;;;;;;;;;;;;;;;;5016057;28;7072;-85
2022/07/31 04:10:36;;;;;;;;;;;;;;;;;;5016015;28;7160;-86
2022/07/31 04:13:03;;;;;;;;;;;;;;;;;;5015491;28;7040;-86
2022/07/31 04:15:28;;;;;;;;;;;;;;;;;;5015352;28;6989;-86
2022/07/31 04:17:54;;;;;;;;;;;;;;;;;;5014949;28;8345;-85
2022/07/31 04:20:21;;;;;;;;;;;;;;;;;;5015580;28;7134;-85
2022/07/31 04:22:47;;;;;;;;;;;;;;;;;;5015224;28;7037;-85
2022/07/31 04:25:13;;;;;;;;;;;;;;;;;;5015283;28;7160;-85
2022/07/31 04:27:39;;;;;;;;;;;;;;;;;;5015105;28;8320;-86
2022/07/31 04:30:05;;;;;;;;;;;;;;;;;;5015157;28;8396;-85
2022/07/31 04:32:30;;;;;;;;;;;;;;;;;;5015207;28;7006;-86
2022/07/31 04:34:56;;;;;;;;;;;;;;;;;;5015156;28;7180;-85
2022/07/31 04:37:22;;;;;;;;;;;;;;;;;;5014726;28;7166;-86
2022/07/31 04:39:48;;;;;;;;;;;;;;;;;;5015273;28;6981;-85
2022/07/31 04:42:14;;;;;;;;;;;;;;;;;;5014954;28;7142;-86
2022/07/31 04:44:39;;;;;;;;;;;;;;;;;;5014470;28;7171;-86
2022/07/31 04:47:06;;;;;;;;;;;;;;;;;;5014485;28;7153;-86
2022/07/31 04:49:32;;;;;;;;;;;;;;;;;;5014939;28;7129;-85
2022/07/31 04:51:58;;;;;;;;;;;;;;;;;;5014944;28;8533;-86
2022/07/31 04:54:24;;;;;;;;;;;;;;;;;;5015329;28;7005;-86
2022/07/31 04:56:50;;;;;;;;;;;;;;;;;;5014866;28;7075;-86
2022/07/31 04:59:17;;;;;;;;;;;;;;;;;;5014401;28;8308;-85
2022/07/31 05:01:43;;;;;;;;;;;;;;;;;;5014631;28;7045;-85
2022/07/31 05:04:09;;;;;;;;;;;;;;;;;;5014091;28;7013;-85
2022/07/31 05:06:43;;;;;;;;;;;;;;;;;;5014254;28;7134;-85
2022/07/31 05:09:12;;;;;;;;;;;;;;;;;;5014343;28;7370;-85
2022/07/31 05:11:39;;;;;;;;;;;;;;;;;;5014069;28;8766;-85
2022/07/31 05:14:07;;;;;;;;;;;;;;;;;;5014350;28;7183;-86
2022/07/31 05:16:35;;;;;;;;;;;;;;;;;;5013879;28;7164;-85
2022/07/31 05:19:01;;;;;;;;;;;;;;;;;;5014758;28;8875;-84
2022/07/31 05:21:29;;;;;;;;;;;;;;;;;;5015294;28;7143;-85
2022/07/31 05:23:55;;;;;;;;;;;;;;;;;;5015713;28;8909;-86
2022/07/31 05:26:21;;;;;;;;;;;;;;;;;;5015847;28;7156;-85
2022/07/31 05:28:48;;;;;;;;;;;;;;;;;;5016670;28;7058;-86
2022/07/31 05:31:14;;;;;;;;;;;;;;;;;;5015717;28;7248;-86
2022/07/31 05:33:40;;;;;;;;;;;;;;;;;;5015999;28;6863;-84
2022/07/31 05:36:05;;;;;;;;;;;;;;;;;;5015970;28;7975;-85
2022/07/31 05:38:31;;;;;;;;;;;;;;;;;;5015656;28;7243;-84
2022/07/31 05:40:56;;;;;;;;;;;;;;;;;;5016592;28;8314;-85
2022/07/31 05:43:22;;;;;;;;;;;;;;;;;;5016114;28;9309;-84
2022/07/31 05:45:47;;;;;;;;;;;;;;;;;;5018508;28;7144;-84
2022/07/31 05:48:17;;;;;;;;;;;;;;;;;;5016498;28;7106;-85
2022/07/31 05:50:43;;;;;;;;;;;;;;;;;;5016383;28;7164;-85
2022/07/31 05:53:14;;;;;;;;;;;;;;;;;;5016356;28;8439;-84
2022/07/31 05:55:40;;;;;;;;;;;;;;;;;;5016604;28;8972;-83
2022/07/31 05:58:06;;;;;;;;;;;;;;;;;;5016865;28;7236;-75
2022/07/31 06:00:32;;;;;;;;;;;;;;;;;;5016642;28;8426;-83
2022/07/31 06:03:01;;;;;;;;;;;;;;;;;;5016852;28;7387;-83
2022/07/31 06:05:28;;;;;;;;;;;;;;;;;;5016720;28;8457;-83
2022/07/31 06:07:55;;;;;;;;;;;;;;;;;;5016956;28;8307;-85
2022/07/31 06:10:20;;;;;;;;;;;;;;;;;;5017133;28;6987;-84
2022/07/31 06:12:46;;;;;;;;;;;;;;;;;;5016893;28;7166;-85
2022/07/31 06:15:12;;;;;;;;;;;;;;;;;;5033083;28;8443;-84
2022/07/31 06:17:38;;;;;;;;;;;;;;;;;;5013545;28;7223;-85
2022/07/31 06:20:04;;;;;;;;;;;;;;;;;;5012924;28;8463;-85
2022/07/31 06:22:30;;;;;;;;;;;;;;;;;;5013902;28;7132;-86
2022/07/31 06:24:55;;;;;;;;;;;;;;;;;;5016698;28;8471;-86
2022/07/31 06:27:21;;;;;;;;;;;;;;;;;;5017895;28;7003;-85
2022/07/31 06:29:47;;;;;;;;;;;;;;;;;;5017034;28;7084;-86
2022/07/31 06:32:13;;;;;;;;;;;;;;;;;;5017472;28;8397;-85
2022/07/31 06:34:39;;;;;;;;;;;;;;;;;;5017655;28;8408;-85
2022/07/31 06:37:05;;;;;;;;;;;;;;;;;;5018038;28;7031;-86
2022/07/31 06:39:31;;;;;;;;;;;;;;;;;;5016758;28;8691;-85
2022/07/31 06:41:57;;;;;;;;;;;;;;;;;;5017629;28;8430;-85
2022/07/31 06:44:23;;;;;;;;;;;;;;;;;;5017095;28;7059;-85
2022/07/31 06:46:49;;;;;;;;;;;;;;;;;;5016716;28;7332;-86
2022/07/31 06:49:15;;;;;;;;;;;;;;;;;;5016999;28;7040;-85
2022/07/31 06:51:41;;;;;;;;;;;;;;;;;;5016219;28;8431;-84
2022/07/31 06:54:07;;;;;;;;;;;;;;;;;;5017435;28;7152;-85
2022/07/31 06:56:34;;;;;;;;;;;;;;;;;;5016813;28;8441;-85
2022/07/31 06:59:01;;;;;;;;;;;;;;;;;;5016845;28;8768;-85
2022/07/31 07:01:26;;;;;;;;;;;;;;;;;;5016511;28;8535;-86
2022/07/31 07:03:52;;;;;;;;;;;;;;;;;;5016629;28;8652;-85
2022/07/31 07:06:18;;;;;;;;;;;;;;;;;;5016190;28;7200;-86
2022/07/31 07:08:44;;;;;;;;;;;;;;;;;;5016716;28;8667;-85
2022/07/31 07:11:10;;;;;;;;;;;;;;;;;;5016268;28;7152;-86
2022/07/31 07:13:35;;;;;;;;;;;;;;;;;;5016450;28;7050;-86
2022/07/31 07:16:01;;;;;;;;;;;;;;;;;;5016751;28;7194;-86
2022/07/31 07:18:26;;;;;;;;;;;;;;;;;;5016017;28;8458;-86
2022/07/31 07:20:52;;;;;;;;;;;;;;;;;;5016033;28;8518;-85
2022/07/31 07:23:20;;;;;;;;;;;;;;;;;;5015930;28;8344;-85
2022/07/31 07:25:45;;;;;;;;;;;;;;;;;;5016909;28;8451;-86
2022/07/31 07:28:11;;;;;;;;;;;;;;;;;;5017479;28;8637;-85
2022/07/31 07:30:36;;;;;;;;;;;;;;;;;;5016634;28;8761;-86
2022/07/31 07:33:04;;;;;;;;;;;;;;;;;;5016201;28;8443;-85
2022/07/31 07:35:30;;;;;;;;;;;;;;;;;;5015444;28;8407;-86
2022/07/31 07:37:56;;;;;;;;;;;;;;;;;;5015755;28;8471;-86
2022/07/31 07:40:23;;;;;;;;;;;;;;;;;;5016330;28;8421;-85
2022/07/31 07:42:48;;;;;;;;;;;;;;;;;;5015705;28;8684;-84
2022/07/31 07:45:14;;;;;;;;;;;;;;;;;;5015228;28;7051;-85
2022/07/31 07:47:39;;;;;;;;;;;;;;;;;;5015521;28;8488;-85
2022/07/31 07:50:06;;;;;;;;;;;;;;;;;;5015564;28;8750;-85
2022/07/31 07:52:32;;;;;;;;;;;;;;;;;;5015450;28;8753;-85
2022/07/31 07:54:58;;;;;;;;;;;;;;;;;;5015947;28;8453;-85
2022/07/31 07:57:24;;;;;;;;;;;;;;;;;;5015731;28;8849;-85
2022/07/31 07:59:49;;;;;;;;;;;;;;;;;;5014727;28;8406;-85
2022/07/31 08:02:15;;;;;;;;;;;;;;;;;;5015298;28;8667;-85
2022/07/31 08:04:42;;;;;;;;;;;;;;;;;;5015585;28;7083;-85
2022/07/31 08:07:08;;;;;;;;;;;;;;;;;;5016131;28;7188;-86
2022/07/31 08:09:35;;;;;;;;;;;;;;;;;;5015478;28;8555;-85
2022/07/31 08:12:01;;;;;;;;;;;;;;;;;;5015011;28;8462;-86
2022/07/31 08:14:27;;;;;;;;;;;;;;;;;;5015415;28;7194;-86
2022/07/31 08:16:52;;;;;;;;;;;;;;;;;;5017441;28;8444;-85
2022/07/31 08:19:18;;;;;;;;;;;;;;;;;;5019508;28;8778;-87
2022/07/31 08:21:44;;;;;;;;;;;;;;;;;;5017220;28;8404;-86
2022/07/31 08:24:12;;;;;;;;;;;;;;;;;;5017337;28;7171;-89
2022/07/31 08:29:22;;;;;;;;;;;;;;;;;;5036231;28;7028;-87
2022/07/31 08:31:48;;;;;;;;;;;;;;;;;;5018149;28;7094;-87
2022/07/31 08:34:14;;;;;;;;;;;;;;;;;;5018584;28;8743;-86
2022/07/31 08:36:40;;;;;;;;;;;;;;;;;;5017922;28;8465;-86
2022/07/31 08:39:05;;;;;;;;;;;;;;;;;;5017826;28;7161;-87
2022/07/31 08:41:31;;;;;;;;;;;;;;;;;;5018353;28;7148;-86
2022/07/31 08:43:58;;;;;;;;;;;;;;;;;;5018695;28;7260;-86
2022/07/31 08:46:26;;;;;;;;;;;;;;;;;;5033526;28;8536;-90
2022/07/31 08:48:55;;;;;;;;;;;;;;;;;;5017767;28;8474;-90
2022/07/31 08:51:22;;;;;;;;;;;;;;;;;;5017672;28;8793;-90
2022/07/31 08:53:52;;;;;;;;;;;;;;;;;;5017936;28;8758;-89
2022/07/31 08:56:19;;;;;;;;;;;;;;;;;;5018449;28;8791;-85
2022/07/31 08:58:44;;;;;;;;;;;;;;;;;;5017900;28;7173;-86
2022/07/31 09:01:11;;;;;;;;;;;;;;;;;;5017730;28;7025;-86
2022/07/31 09:03:37;;;;;;;;;;;;;;;;;;5017561;28;8758;-87
2022/07/31 09:06:05;;;;;;;;;;;;;;;;;;5017547;28;7188;-87
2022/07/31 09:08:34;;;;;;;;;;;;;;;;;;5017606;28;8407;-86
2022/07/31 09:11:11;;;;;;;;;;;;;;;;;;5017308;28;8576;-85
2022/07/31 09:13:37;;;;;;;;;;;;;;;;;;5017084;28;8488;-86
2022/07/31 09:16:04;;;;;;;;;;;;;;;;;;5017891;28;7193;-86
2022/07/31 09:18:31;;;;;;;;;;;;;;;;;;5017020;28;7032;-85
2022/07/31 09:20:56;;;;;;;;;;;;;;;;;;5017352;28;8518;-86
2022/07/31 09:23:23;;;;;;;;;;;;;;;;;;5016445;28;8603;-86
2022/07/31 09:25:57;;;;;;;;;;;;;;;;;;5016397;28;7206;-84
2022/07/31 09:28:33;;;;;;;;;;;;;;;;;;5016103;28;7285;-85
2022/07/31 09:30:58;;;;;;;;;;;;;;;;;;5016174;28;7074;-85
2022/07/31 09:33:26;;;;;;;;;;;;;;;;;;5016261;28;8478;-81
2022/07/31 09:35:52;;;;;;;;;;;;;;;;;;5015580;28;7381;-79
2022/07/31 09:38:18;;;;;;;;;;;;;;;;;;5016284;28;7161;-89
2022/07/31 09:40:44;;;;;;;;;;;;;;;;;;5016847;28;7044;-82
2022/07/31 09:43:23;;;;;;;;;;;;;;;;;;5016578;28;8457;-83
2022/07/31 09:45:56;;;;;;;;;;;;;;;;;;5017462;28;7135;-77
2022/07/31 09:48:22;;;;;;;;;;;;;;;;;;5017138;28;7300;-76
2022/07/31 09:50:54;;;;;;;;;;;;;;;;;;5016313;28;7077;-74
2022/07/31 09:53:20;;;;;;;;;;;;;;;;;;5016961;28;7465;-75
2022/07/31 09:55:52;;;;;;;;;;;;;;;;;;5016540;28;6968;-83
2022/07/31 09:58:18;;;;;;;;;;;;;;;;;;5019210;28;7167;-82
2022/07/31 10:00:45;;;;;;;;;;;;;;;;;;5020677;28;8748;-76
2022/07/31 10:03:12;;;;;;;;;;;;;;;;;;5019634;28;8708;-75
2022/07/31 10:05:40;;;;;;;;;;;;;;;;;;5019862;28;8565;-76
2022/07/31 10:08:06;;;;;;;;;;;;;;;;;;5020185;28;7053;-74
2022/07/31 10:10:32;;;;;;;;;;;;;;;;;;5019953;28;8631;-75
2022/07/31 10:13:02;;;;;;;;;;;;;;;;;;5019860;28;7053;-76
2022/07/31 10:15:28;;;;;;;;;;;;;;;;;;5020265;28;7145;-75
2022/07/31 10:17:55;;;;;;;;;;;;;;;;;;5020092;28;7190;-74
2022/07/31 10:20:22;;;;;;;;;;;;;;;;;;5020283;28;7078;-77
2022/07/31 10:22:52;;;;;;;;;;;;;;;;;;5020655;28;8475;-87
2022/07/31 10:25:23;;;;;;;;;;;;;;;;;;5020378;28;8518;-86
2022/07/31 10:27:50;;;;;;;;;;;;;;;;;;5021446;28;8769;-86
2022/07/31 10:30:16;;;;;;;;;;;;;;;;;;5020519;28;8485;-84
2022/07/31 10:32:43;;;;;;;;;;;;;;;;;;5020005;28;8663;-84
2022/07/31 10:35:09;;;;;;;;;;;;;;;;;;5020088;28;7203;-77
2022/07/31 10:37:42;;;;;;;;;;;;;;;;;;5020285;28;8460;-75
2022/07/31 10:40:23;;;;;;;;;;;;;;;;;;5020012;28;7072;-78
2022/07/31 10:43:07;;;;;;;;;;;;;;;;;;5020001;28;7209;-85
2022/07/31 10:45:44;;;;;;;;;;;;;;;;;;5020210;28;8450;-82
2022/07/31 10:48:10;;;;;;;;;;;;;;;;;;5020301;28;8458;-83
2022/07/31 10:50:36;;;;;;;;;;;;;;;;;;5019687;28;8429;-83
2022/07/31 10:53:06;;;;;;;;;;;;;;;;;;5019905;28;7293;-84
2022/07/31 10:55:34;;;;;;;;;;;;;;;;;;5019885;28;8778;-85
2022/07/31 10:58:13;;;;;;;;;;;;;;;;;;5018864;28;7078;-86
2022/07/31 11:00:39;;;;;;;;;;;;;;;;;;5018264;28;8355;-84
2022/07/31 11:03:14;;;;;;;;;;;;;;;;;;5018189;28;7218;-83
2022/07/31 11:05:51;;;;;;;;;;;;;;;;;;5019887;28;8872;-84
2022/07/31 11:08:16;;;;;;;;;;;;;;;;;;5019760;28;9454;-85
2022/07/31 11:10:48;;;;;;;;;;;;;;;;;;5018597;28;7054;-84
2022/07/31 11:13:16;;;;;;;;;;;;;;;;;;5019741;28;8472;-84
2022/07/31 11:15:42;;;;;;;;;;;;;;;;;;5019426;28;7072;-85
2022/07/31 11:18:12;;;;;;;;;;;;;;;;;;5019235;28;7048;-84
2022/07/31 11:20:37;;;;;;;;;;;;;;;;;;5019406;28;7069;-84
2022/07/31 11:23:05;;;;;;;;;;;;;;;;;;5019659;28;8768;-85
2022/07/31 11:25:33;;;;;;;;;;;;;;;;;;5019477;28;8425;-84
2022/07/31 11:28:13;;;;;;;;;;;;;;;;;;5019156;28;7212;-84
2022/07/31 11:30:48;;;;;;;;;;;;;;;;;;5020062;28;7189;-84
2022/07/31 11:33:14;;;;;;;;;;;;;;;;;;5019386;28;8859;-83
2022/07/31 11:35:40;;;;;;;;;;;;;;;;;;5019251;28;7051;-84
2022/07/31 11:38:06;;;;;;;;;;;;;;;;;;5019358;28;7497;-85
2022/07/31 11:40:32;;;;;;;;;;;;;;;;;;5036313;28;7126;-84
2022/07/31 11:42:58;;;;;;;;;;;;;;;;;;5019824;28;8508;-84
2022/07/31 11:45:23;;;;;;;;;;;;;;;;;;5020008;28;8772;-83
2022/07/31 11:47:50;;;;;;;;;;;;;;;;;;5019886;28;7039;-84
2022/07/31 11:50:17;;;;;;;;;;;;;;;;;;5019146;28;8941;-85
2022/07/31 11:52:43;;;;;;;;;;;;;;;;;;5018580;28;8953;-84
2022/07/31 11:55:10;;;;;;;;;;;;;;;;;;5019260;28;7060;-84
2022/07/31 11:57:37;;;;;;;;;;;;;;;;;;5018833;28;8857;-83
2022/07/31 12:00:07;;;;;;;;;;;;;;;;;;5018791;28;8440;-84
2022/07/31 12:02:33;;;;;;;;;;;;;;;;;;5018871;28;7058;-85
2022/07/31 12:05:02;;;;;;;;;;;;;;;;;;5018893;28;8584;-84
2022/07/31 12:07:29;;;;;;;;;;;;;;;;;;5018730;28;7268;-83
2022/07/31 12:09:55;;;;;;;;;;;;;;;;;;5018581;28;8479;-83
2022/07/31 12:12:21;;;;;;;;;;;;;;;;;;5018394;28;8452;-83
2022/07/31 12:14:46;;;;;;;;;;;;;;;;;;5018251;28;8410;-83
2022/07/31 12:17:19;;;;;;;;;;;;;;;;;;5018336;28;8462;-82
2022/07/31 12:19:44;;;;;;;;;;;;;;;;;;5017580;28;7199;-83
2022/07/31 12:22:14;;;;;;;;;;;;;;;;;;5015324;28;7340;-84
2022/07/31 12:24:41;;;;;;;;;;;;;;;;;;5017439;28;8705;-84
2022/07/31 12:27:07;;;;;;;;;;;;;;;;;;5016930;28;7278;-83
2022/07/31 12:29:34;;;;;;;;;;;;;;;;;;5016761;28;7186;-83
2022/07/31 12:32:00;;;;;;;;;;;;;;;;;;5017886;28;8772;-84
2022/07/31 12:34:41;;;;;;;;;;;;;;;;;;5017841;28;8618;-84
2022/07/31 12:37:14;;;;;;;;;;;;;;;;;;5018432;28;6848;-84
2022/07/31 12:39:46;;;;;;;;;;;;;;;;;;5018108;28;8811;-83
2022/07/31 12:42:22;;;;;;;;;;;;;;;;;;5018734;28;7177;-82
2022/07/31 12:44:48;;;;;;;;;;;;;;;;;;5017891;28;8695;-85
2022/07/31 12:47:24;;;;;;;;;;;;;;;;;;5017883;28;6852;-84
2022/07/31 12:49:50;;;;;;;;;;;;;;;;;;5017566;28;7073;-85
2022/07/31 12:52:16;;;;;;;;;;;;;;;;;;5017518;28;6839;-85
2022/07/31 12:54:42;;;;;;;;;;;;;;;;;;5017875;28;7083;-84
2022/07/31 12:57:08;;;;;;;;;;;;;;;;;;5017705;28;8430;-83
2022/07/31 12:59:35;;;;;;;;;;;;;;;;;;5018461;28;6995;-83
2022/07/31 13:02:01;;;;;;;;;;;;;;;;;;5018006;28;7042;-82
2022/07/31 13:04:26;;;;;;;;;;;;;;;;;;5017781;28;8257;-80
2022/07/31 13:06:52;;;;;;;;;;;;;;;;;;5017783;28;8484;-83
2022/07/31 13:09:18;;;;;;;;;;;;;;;;;;5017442;28;7062;-84
2022/07/31 13:11:44;;;;;;;;;;;;;;;;;;5017539;28;8494;-85
2022/07/31 13:14:10;;;;;;;;;;;;;;;;;;5017882;28;8379;-85
2022/07/31 13:16:35;;;;;;;;;;;;;;;;;;5017448;28;7246;-83
2022/07/31 13:19:01;;;;;;;;;;;;;;;;;;5018166;28;7437;-84
2022/07/31 13:21:27;;;;;;;;;;;;;;;;;;5017505;28;7298;-85
2022/07/31 13:23:53;;;;;;;;;;;;;;;;;;5002399;28;8414;-84
2022/07/31 13:26:19;;;;;;;;;;;;;;;;;;4996663;28;8534;-84
2022/07/31 13:28:45;;;;;;;;;;;;;;;;;;4997107;28;7093;-84
2022/07/31 13:31:10;;;;;;;;;;;;;;;;;;4997088;28;7362;-85
2022/07/31 13:33:36;;;;;;;;;;;;;;;;;;4995480;28;7160;-83
2022/07/31 13:36:02;;;;;;;;;;;;;;;;;;4996297;28;7152;-84
2022/07/31 13:38:28;;;;;;;;;;;;;;;;;;4996143;28;7170;-85
2022/07/31 13:43:38;;;;;;;;;;;;;;;;;;5012543;28;8763;-82
2022/07/31 13:46:04;;;;;;;;;;;;;;;;;;4996870;28;7133;-85
2022/07/31 13:48:29;;;;;;;;;;;;;;;;;;4996249;28;7615;-84
2022/07/31 13:50:55;;;;;;;;;;;;;;;;;;4996361;28;7154;-83
2022/07/31 13:53:20;;;;;;;;;;;;;;;;;;4996027;28;7064;-84
2022/07/31 13:55:46;;;;;;;;;;;;;;;;;;4996593;28;8618;-84
2022/07/31 13:58:11;;;;;;;;;;;;;;;;;;5001750;28;7107;-84
2022/07/31 14:00:37;;;;;;;;;;;;;;;;;;5015768;28;8656;-83
2022/07/31 14:03:02;;;;;;;;;;;;;;;;;;5014828;28;7154;-83
2022/07/31 14:05:28;;;;;;;;;;;;;;;;;;5016204;28;8317;-83
2022/07/31 14:07:54;;;;;;;;;;;;;;;;;;5001018;28;7434;-82
2022/07/31 14:10:20;;;;;;;;;;;;;;;;;;4997670;28;7216;-82
2022/07/31 14:12:46;;;;;;;;;;;;;;;;;;4996809;28;7156;-82
2022/07/31 14:15:12;;;;;;;;;;;;;;;;;;4997194;28;8457;-86
2022/07/31 14:17:38;;;;;;;;;;;;;;;;;;4994203;28;7016;-88
2022/07/31 14:20:04;;;;;;;;;;;;;;;;;;4994883;28;7214;-85
2022/07/31 14:22:30;;;;;;;;;;;;;;;;;;4993904;28;8488;-85
2022/07/31 14:24:55;;;;;;;;;;;;;;;;;;4993885;28;8516;-85
2022/07/31 14:27:21;;;;;;;;;;;;;;;;;;4993889;28;7338;-84
2022/07/31 14:29:47;;;;;;;;;;;;;;;;;;4993862;28;8819;-83
2022/07/31 14:32:13;;;;;;;;;;;;;;;;;;4993756;28;7158;-85
2022/07/31 14:34:38;;;;;;;;;;;;;;;;;;4993876;28;7191;-85
2022/07/31 14:37:04;;;;;;;;;;;;;;;;;;4994237;28;8537;-85
2022/07/31 14:39:29;;;;;;;;;;;;;;;;;;4994189;28;9340;-85
2022/07/31 14:41:55;;;;;;;;;;;;;;;;;;4994140;28;7406;-85
2022/07/31 14:44:20;;;;;;;;;;;;;;;;;;4994708;28;7033;-85
2022/07/31 14:46:46;;;;;;;;;;;;;;;;;;4994212;28;8387;-86
2022/07/31 14:49:11;;;;;;;;;;;;;;;;;;4996187;28;7166;-85
2022/07/31 14:51:38;;;;;;;;;;;;;;;;;;4996752;28;7087;-86
2022/07/31 14:54:04;;;;;;;;;;;;;;;;;;4996691;28;8454;-85
2022/07/31 14:56:29;;;;;;;;;;;;;;;;;;4996647;28;7263;-86
2022/07/31 14:58:55;;;;;;;;;;;;;;;;;;4996805;28;8409;-85
2022/07/31 15:01:21;;;;;;;;;;;;;;;;;;4996303;28;7151;-85
2022/07/31 15:03:46;;;;;;;;;;;;;;;;;;4996735;28;7188;-84
2022/07/31 15:06:14;;;;;;;;;;;;;;;;;;4996816;28;8302;-85
2022/07/31 15:08:40;;;;;;;;;;;;;;;;;;4995922;28;8713;-85
2022/07/31 15:11:06;;;;;;;;;;;;;;;;;;4996536;28;7193;-85
2022/07/31 15:13:31;;;;;;;;;;;;;;;;;;4996204;28;8317;-84
2022/07/31 15:15:57;;;;;;;;;;;;;;;;;;4996467;28;8382;-84
2022/07/31 15:18:22;;;;;;;;;;;;;;;;;;4995975;28;7166;-85
2022/07/31 15:20:48;;;;;;;;;;;;;;;;;;4996539;28;7090;-84
2022/07/31 15:23:13;;;;;;;;;;;;;;;;;;4996296;28;8379;-88
2022/07/31 15:25:39;;;;;;;;;;;;;;;;;;4995872;28;7025;-85
2022/07/31 15:28:04;;;;;;;;;;;;;;;;;;4996250;28;8451;-85
2022/07/31 15:30:30;;;;;;;;;;;;;;;;;;4996041;28;8429;-85
2022/07/31 15:32:55;;;;;;;;;;;;;;;;;;5012739;28;7352;-85
2022/07/31 15:35:21;;;;;;;;;;;;;;;;;;4996510;28;8518;-85
2022/07/31 15:37:48;;;;;;;;;;;;;;;;;;4995929;28;8301;-85
2022/07/31 15:40:15;;;;;;;;;;;;;;;;;;4996076;28;9196;-84
2022/07/31 15:42:42;;;;;;;;;;;;;;;;;;4996650;28;7541;-85
2022/07/31 15:45:10;;;;;;;;;;;;;;;;;;4995722;28;8448;-85
2022/07/31 15:47:37;;;;;;;;;;;;;;;;;;4995825;28;9007;-85
2022/07/31 15:50:03;;;;;;;;;;;;;;;;;;4995635;28;7355;-84
2022/07/31 15:52:28;;;;;;;;;;;;;;;;;;4995682;28;7068;-84
2022/07/31 15:54:54;;;;;;;;;;;;;;;;;;4995903;28;7176;-86
2022/07/31 15:57:20;;;;;;;;;;;;;;;;;;4995967;28;7223;-84
2022/07/31 15:59:46;;;;;;;;;;;;;;;;;;4995490;28;8434;-85
2022/07/31 16:02:11;;;;;;;;;;;;;;;;;;4995490;28;7246;-86
2022/07/31 16:04:37;;;;;;;;;;;;;;;;;;4995401;28;8642;-86
2022/07/31 16:07:03;;;;;;;;;;;;;;;;;;4995294;28;8802;-85
2022/07/31 16:09:29;;;;;;;;;;;;;;;;;;4995714;28;8715;-86
2022/07/31 16:11:54;;;;;;;;;;;;;;;;;;4995569;28;8403;-85
2022/07/31 16:14:20;;;;;;;;;;;;;;;;;;4995173;28;8321;-85
2022/07/31 16:16:46;;;;;;;;;;;;;;;;;;4996706;28;8512;-85
2022/07/31 16:19:11;;;;;;;;;;;;;;;;;;4998129;28;8450;-86
2022/07/31 16:21:36;;;;;;;;;;;;;;;;;;4997956;28;8306;-84
2022/07/31 16:24:02;;;;;;;;;;;;;;;;;;4998710;28;8434;-85
2022/07/31 16:26:28;;;;;;;;;;;;;;;;;;4998882;28;7202;-85
2022/07/31 16:28:53;;;;;;;;;;;;;;;;;;4998046;28;7170;-85
2022/07/31 16:31:19;;;;;;;;;;;;;;;;;;4998089;28;8485;-85
2022/07/31 16:33:45;;;;;;;;;;;;;;;;;;4997990;28;8484;-83
2022/07/31 16:36:10;;;;;;;;;;;;;;;;;;4998049;28;8508;-83
2022/07/31 16:38:36;;;;;;;;;;;;;;;;;;4998699;28;7092;-86
2022/07/31 16:41:01;;;;;;;;;;;;;;;;;;4997820;28;8463;-86
2022/07/31 16:43:27;;;;;;;;;;;;;;;;;;4998115;28;7924;-84
2022/07/31 16:45:53;;;;;;;;;;;;;;;;;;4997990;28;8647;-86
2022/07/31 16:48:19;;;;;;;;;;;;;;;;;;4998232;28;7092;-85
2022/07/31 16:50:45;;;;;;;;;;;;;;;;;;4998815;28;7189;-86
2022/07/31 16:53:11;;;;;;;;;;;;;;;;;;4998357;28;7512;-86
2022/07/31 16:55:37;;;;;;;;;;;;;;;;;;4998072;28;8792;-86
2022/07/31 16:58:03;;;;;;;;;;;;;;;;;;4998266;28;7387;-85
2022/07/31 17:00:28;;;;;;;;;;;;;;;;;;4998370;28;8510;-87
2022/07/31 17:02:54;;;;;;;;;;;;;;;;;;4998848;28;7373;-86
2022/07/31 17:05:19;;;;;;;;;;;;;;;;;;4998128;28;8806;-88